Time;durP1;ratioP1;P1;durP2;ratioP2;P2;SDS_P1;SDS_P2;PMS_P1;PMS_P2;Temp;Humidity;BMP_temperature;BMP_pressure;BME280_temperature;BME280_humidity;BME280_pressure;Samples;Min_cycle;Max_cycle;Signal;HPM_P1;HPM_P2
2022/12/25 09:39:47;;;;;;;0.68;0.62;;;;;;;14.48;52.51;100615.00;4266097;33;33415;-86
2022/12/25 09:42:20;;;;;;;0.00;0.00;;;;;;;14.22;53.91;100619.69;4249895;33;34061;-86
2022/12/25 09:44:52;;;;;;;0.62;0.60;;;;;;;14.65;51.96;100615.06;4236435;33;34494;-86
2022/12/25 09:47:24;;;;;;;0.70;0.70;;;;;;;14.87;50.99;100622.91;4260377;33;34113;-85
2022/12/25 09:50:12;;;;;;;0.45;0.45;;;;;;;14.92;51.16;100626.19;4250714;33;33974;-86
2022/12/25 09:52:52;;;;;;;0.62;0.62;;;;;;;14.97;51.01;100625.97;4249199;33;32581;-86
2022/12/25 09:55:23;;;;;;;1.20;1.00;;;;;;;14.97;51.26;100634.81;4262243;33;32871;-86
2022/12/25 09:57:56;;;;;;;6.32;1.52;;;;;;;14.93;51.09;100627.91;4264263;33;30866;-86
2022/12/25 10:00:35;;;;;;;0.73;0.73;;;;;;;14.90;50.92;100628.03;4255095;33;34985;-86
2022/12/25 10:03:13;;;;;;;0.90;0.77;;;;;;;14.82;51.61;100631.09;4235731;33;35651;-86
2022/12/25 10:06:00;;;;;;;1.05;0.70;;;;;;;14.73;51.62;100628.00;4244084;33;32705;-86
2022/12/25 10:08:42;;;;;;;2.37;1.67;;;;;;;14.92;51.01;100628.84;4247337;33;33755;-86
2022/12/25 10:11:50;;;;;;;1.20;0.70;;;;;;;14.73;51.33;100623.56;4256759;33;32135;-86
2022/12/25 10:14:29;;;;;;;0.98;0.95;;;;;;;14.98;51.42;100615.25;4240026;33;33314;-87
2022/12/25 10:17:20;;;;;;;1.02;0.82;;;;;;;15.14;50.73;100614.47;4247480;33;32316;-86
2022/12/25 10:19:58;;;;;;;0.80;0.80;;;;;;;15.39;49.68;100599.03;4259388;33;33218;-87
2022/12/25 10:22:30;;;;;;;0.55;0.55;;;;;;;15.43;49.26;100603.25;4260902;33;33504;-88
2022/12/25 10:24:59;;;;;;;2.12;1.42;;;;;;;15.39;49.41;100607.00;4249621;33;33568;-86
2022/12/25 10:27:31;;;;;;;0.88;0.88;;;;;;;15.58;48.81;100601.59;4260780;33;33075;-86
2022/12/25 10:29:58;;;;;;;;;;;;;;;15.60;49.04;100597.91;4262066;33;33582;-86
2022/12/25 10:32:26;;;;;;;0.43;0.43;;;;;;;15.75;47.95;100590.09;4251502;33;33985;-85
2022/12/25 10:34:54;;;;;;;0.20;0.20;;;;;;;15.41;49.63;100594.47;4245855;33;33829;-85
2022/12/25 10:37:22;;;;;;;0.25;0.25;;;;;;;15.36;51.02;100596.50;4250215;33;32316;-85
2022/12/25 10:39:49;;;;;;;1.10;0.75;;;;;;;15.67;49.24;100595.00;4234171;33;33555;-85
2022/12/25 10:42:20;;;;;;;0.40;0.30;;;;;;;15.89;48.70;100598.22;4260733;33;33945;-85
2022/12/25 10:44:58;;;;;;;0.80;0.80;;;;;;;15.75;49.49;100595.44;4262717;33;33734;-85
2022/12/25 10:47:30;;;;;;;3.60;0.95;;;;;;;15.97;48.73;100590.69;4246279;33;33517;-85
2022/12/25 10:49:59;;;;;;;0.00;0.00;;;;;;;16.08;47.38;100593.63;4253577;33;33438;-87
2022/12/25 10:52:27;;;;;;;0.52;0.40;;;;;;;16.52;46.32;100582.34;4255394;33;33584;-86
2022/12/25 10:54:57;;;;;;;3.92;1.85;;;;;;;16.60;45.95;100584.56;4249005;33;32192;-87
2022/12/25 10:57:27;;;;;;;2.03;1.10;;;;;;;16.50;46.42;100584.22;4249957;33;33244;-85
2022/12/25 10:59:56;;;;;;;0.10;0.10;;;;;;;16.81;45.57;100579.87;4247693;33;33681;-85
2022/12/25 11:02:24;;;;;;;0.05;0.03;;;;;;;16.63;46.85;100581.75;4249315;33;33898;-85
2022/12/25 11:05:30;;;;;;;0.17;0.17;;;;;;;16.92;45.68;100573.94;4260214;33;33389;-85
2022/12/25 11:07:59;;;;;;;7.12;0.50;;;;;;;17.00;45.67;100571.69;4250906;33;33209;-85
2022/12/25 11:10:36;;;;;;;0.45;0.45;;;;;;;17.23;44.38;100564.97;4254188;33;33878;-85
2022/12/25 11:13:15;;;;;;;0.57;0.57;;;;;;;17.01;44.80;100560.91;4265706;33;33591;-86
2022/12/25 11:15:47;;;;;;;1.15;0.52;;;;;;;17.23;44.20;100552.47;4254375;33;33572;-85
2022/12/25 11:18:27;;;;;;;0.30;0.30;;;;;;;17.35;43.43;100546.44;4253685;33;32628;-85
2022/12/25 11:20:59;;;;;;;1.75;0.22;;;;;;;17.17;44.87;100547.53;4252947;33;33365;-85
2022/12/25 11:23:28;;;;;;;0.00;0.00;;;;;;;16.99;43.96;100559.25;4253622;33;33971;-86
2022/12/25 11:25:59;;;;;;;0.15;0.15;;;;;;;17.36;43.29;100545.47;4253620;33;32999;-85
2022/12/25 11:28:29;;;;;;;2.17;1.02;;;;;;;17.49;42.56;100547.41;4254227;33;32380;-85
2022/12/25 11:31:05;;;;;;;2.40;1.23;;;;;;;17.25;43.65;100547.06;4259044;33;33129;-85
2022/12/25 11:33:44;;;;;;;13.25;0.55;;;;;;;17.20;42.75;100539.34;4253112;33;33318;-85
2022/12/25 11:36:19;;;;;;;1.58;0.77;;;;;;;17.10;42.59;100554.19;4254178;33;33206;-85
2022/12/25 11:38:47;;;;;;;4.28;1.55;;;;;;;16.73;43.87;100544.78;4255290;33;33715;-85
2022/12/25 11:41:19;;;;;;;1.75;0.40;;;;;;;16.75;44.63;100546.41;4251410;33;34581;-85
2022/12/25 11:43:55;;;;;;;0.62;0.37;;;;;;;16.81;44.29;100550.53;4265636;33;31230;-85
2022/12/25 11:46:29;;;;;;;1.33;0.60;;;;;;;16.94;43.61;100542.66;4254618;33;33861;-85
2022/12/25 11:49:00;;;;;;;0.90;0.75;;;;;;;17.02;42.81;100538.63;4255799;33;32174;-85
2022/12/25 11:51:32;;;;;;;0.93;0.70;;;;;;;16.74;43.34;100552.69;4254985;33;33913;-85
2022/12/25 11:54:16;;;;;;;0.00;0.00;;;;;;;16.43;46.26;100547.38;4238874;33;33009;-85
2022/12/25 11:56:43;;;;;;;1.20;1.12;;;;;;;16.36;48.00;100542.34;4252363;33;33808;-85
2022/12/25 11:59:21;;;;;;;0.00;0.00;;;;;;;16.22;47.93;100546.72;4255608;33;33004;-85
2022/12/25 12:01:53;;;;;;;1.80;0.57;;;;;;;16.32;48.58;100537.28;4266754;33;33994;-85
2022/12/25 12:04:25;;;;;;;2.17;1.80;;;;;;;16.32;49.10;100537.28;4265730;33;33501;-85
2022/12/25 12:07:07;;;;;;;3.42;1.67;;;;;;;16.23;49.81;100537.78;4257472;33;33599;-85
2022/12/25 12:09:51;;;;;;;1.17;0.70;;;;;;;16.17;49.79;100533.66;4265758;33;32276;-85
2022/12/25 12:12:27;;;;;;;0.20;0.20;;;;;;;16.41;49.27;100528.75;4269040;33;34637;-85
2022/12/25 12:15:02;;;;;;;1.70;1.52;;;;;;;15.97;50.15;100529.44;4264278;33;32793;-85
2022/12/25 12:17:30;;;;;;;0.60;0.60;;;;;;;16.12;49.20;100525.91;4256679;33;32762;-85
2022/12/25 12:20:28;;;;;;;5.35;0.98;;;;;;;16.22;49.14;100536.06;4253578;33;32661;-85
2022/12/25 12:22:57;;;;;;;1.25;0.88;;;;;;;16.02;50.10;100538.03;4254268;33;34253;-85
2022/12/25 12:25:26;;;;;;;1.55;1.00;;;;;;;15.90;50.27;100536.00;4255047;33;34590;-85
2022/12/25 12:27:56;;;;;;;0.32;0.32;;;;;;;16.35;48.88;100535.31;4270214;33;34075;-85
2022/12/25 12:30:36;;;;;;;1.62;0.52;;;;;;;16.13;48.87;100540.09;4251860;33;32536;-85
2022/12/25 12:33:05;;;;;;;0.10;0.10;;;;;;;16.39;49.13;100544.00;4253264;33;33004;-85
2022/12/25 12:35:36;;;;;;;0.00;0.00;;;;;;;16.39;47.59;100542.19;4256237;33;32646;-85
2022/12/25 12:38:08;;;;;;;4.95;0.32;;;;;;;16.27;47.25;100544.66;4255255;33;32740;-85
2022/12/25 12:40:38;;;;;;;0.82;0.82;;;;;;;16.24;46.93;100540.38;4251998;33;33406;-84
2022/12/25 12:43:41;;;;;;;2.40;1.95;;;;;;;16.22;47.39;100536.06;4267476;33;33987;-84
2022/12/25 12:46:29;;;;;;;1.10;1.02;;;;;;;16.27;47.29;100539.34;4249834;33;34377;-85
2022/12/25 12:49:31;;;;;;;2.58;0.73;;;;;;;16.39;48.26;100539.53;4249946;33;32908;-84
2022/12/25 12:52:32;;;;;;;0.10;0.10;;;;;;;16.43;47.10;100545.56;4247614;33;32820;-85
2022/12/25 12:55:13;;;;;;;0.50;0.50;;;;;;;16.16;48.82;100547.06;4249988;33;34291;-84
2022/12/25 12:57:41;;;;;;;0.75;0.75;;;;;;;15.95;49.39;100549.09;4249941;33;33047;-85
2022/12/25 13:00:18;;;;;;;0.25;0.25;;;;;;;16.00;49.74;100553.25;4251381;33;33978;-85
2022/12/25 13:03:07;;;;;;;1.48;0.88;;;;;;;15.96;50.65;100557.00;4251249;33;33623;-84
2022/12/25 13:05:44;;;;;;;0.30;0.30;;;;;;;15.97;51.25;100564.06;4264212;33;33076;-84
2022/12/25 13:08:37;;;;;;;0.52;0.52;;;;;;;15.87;50.84;100573.50;4241124;33;32954;-84
2022/12/25 13:11:17;;;;;;;2.72;0.55;;;;;;;15.37;52.05;100564.50;4258779;33;33594;-84
2022/12/25 13:13:47;;;;;;;1.75;1.12;;;;;;;15.52;52.02;100561.97;4250616;33;32649;-87
2022/12/25 13:16:20;;;;;;;0.85;0.75;;;;;;;15.66;51.42;100566.63;4249859;33;33940;-87
2022/12/25 13:18:50;;;;;;;0.43;0.43;;;;;;;15.60;52.03;100565.97;4261882;33;33609;-86
2022/12/25 13:21:27;;;;;;;8.73;1.35;;;;;;;15.62;52.05;100549.94;4246404;33;32234;-87
2022/12/25 13:24:15;;;;;;;0.88;0.60;;;;;;;15.65;52.76;100559.56;4235977;33;32555;-87
2022/12/25 13:26:43;;;;;;;1.27;0.95;;;;;;;15.48;52.78;100552.47;4249406;33;32755;-86
2022/12/25 13:29:28;;;;;;;2.47;1.27;;;;;;;15.58;52.26;100557.22;4236605;33;32692;-87
2022/12/25 13:31:57;;;;;;;0.68;0.50;;;;;;;15.29;52.45;100555.22;4246715;33;33811;-86
2022/12/25 13:34:32;;;;;;;1.12;0.70;;;;;;;15.51;51.90;100555.78;4234131;33;32527;-86
2022/12/25 13:37:08;;;;;;;1.25;1.25;;;;;;;15.61;51.86;100559.69;4257734;33;31633;-86
2022/12/25 13:39:39;;;;;;;1.37;0.43;;;;;;;15.08;52.47;100567.78;4246272;33;33727;-86
2022/12/25 13:42:09;;;;;;;0.20;0.20;;;;;;;14.93;53.14;100561.44;4249070;33;33717;-86
2022/12/25 13:44:58;;;;;;;0.20;0.20;;;;;;;14.96;53.29;100563.94;4237526;33;31587;-86
2022/12/25 13:47:44;;;;;;;0.30;0.30;;;;;;;14.93;53.11;100568.53;4248231;33;33651;-86
2022/12/25 13:50:28;;;;;;;1.00;0.90;;;;;;;15.18;52.94;100562.84;4259684;33;33654;-86
2022/12/25 13:53:10;;;;;;;0.68;0.68;;;;;;;15.19;52.91;100564.56;4249518;33;32465;-86
2022/12/25 13:55:40;;;;;;;0.77;0.77;;;;;;;15.09;53.23;100573.00;4248037;33;34322;-86
2022/12/25 13:58:26;;;;;;;0.75;0.68;;;;;;;15.06;52.82;100572.31;4249489;33;33104;-87
2022/12/25 14:00:56;;;;;;;1.60;1.20;;;;;;;14.94;53.42;100570.25;4245159;33;32564;-87
2022/12/25 14:03:50;;;;;;;1.10;0.75;;;;;;;15.26;52.50;100566.00;4237670;33;34501;-88
2022/12/25 14:06:27;;;;;;;1.83;0.57;;;;;;;15.34;52.37;100556.69;4246703;33;33561;-88
2022/12/25 14:08:57;;;;;;;2.40;1.20;;;;;;;15.60;51.50;100563.31;4250236;33;33895;-86
2022/12/25 14:11:27;;;;;;;0.70;0.70;;;;;;;15.41;51.99;100562.53;4263794;33;33367;-88
2022/12/25 14:14:01;;;;;;;0.60;0.57;;;;;;;15.27;52.01;100573.03;4252389;33;34836;-85
2022/12/25 14:16:28;;;;;;;0.62;0.57;;;;;;;15.15;52.33;100571.00;4243961;33;31851;-85
2022/12/25 14:18:59;;;;;;;0.90;0.40;;;;;;;15.23;52.20;100571.47;4248757;33;32953;-87
2022/12/25 14:21:27;;;;;;;5.03;1.37;;;;;;;15.17;52.25;100569.13;4247350;33;33429;-86
2022/12/25 14:23:56;;;;;;;3.10;1.42;;;;;;;14.90;53.43;100572.19;4258712;33;34009;-86
2022/12/25 14:26:27;;;;;;;0.77;0.77;;;;;;;15.06;53.08;100565.22;4233793;33;32373;-87
2022/12/25 14:29:04;;;;;;;2.58;1.40;;;;;;;15.16;52.96;100572.72;4229038;33;30945;-86
2022/12/25 14:31:32;;;;;;;1.85;1.75;;;;;;;15.08;53.19;100573.09;4261414;33;32975;-87
2022/12/25 14:34:02;;;;;;;0.73;0.73;;;;;;;15.06;53.32;100577.66;4258646;33;34633;-87
2022/12/25 14:36:30;;;;;;;4.37;1.33;;;;;;;14.95;53.60;100578.16;4235235;33;33335;-87
2022/12/25 14:39:01;;;;;;;0.52;0.52;;;;;;;15.06;53.33;100581.16;4245243;33;32754;-86
2022/12/25 14:41:40;;;;;;;2.60;2.22;;;;;;;15.03;53.50;100586.63;4236756;33;32220;-87
2022/12/25 14:44:32;;;;;;;1.23;0.73;;;;;;;15.01;53.47;100593.81;4248983;33;33228;-87
2022/12/25 14:47:14;;;;;;;1.02;1.02;;;;;;;14.85;54.04;100591.03;4256612;33;33470;-87
2022/12/25 14:49:42;;;;;;;;;;;;;;;14.84;53.97;100593.78;4261511;33;34165;-86
2022/12/25 14:52:22;;;;;;;6.28;2.22;;;;;;;14.82;53.89;100591.22;4247786;33;33827;-87
2022/12/25 14:55:01;;;;;;;4.72;3.22;;;;;;;14.60;54.51;100583.41;4256342;33;32878;-85
2022/12/25 14:57:35;;;;;;;3.87;2.78;;;;;;;14.49;54.90;100582.19;4257464;33;34064;-87
2022/12/25 15:00:35;;;;;;;2.12;1.87;;;;;;;14.62;54.13;100579.78;4246419;33;32932;-86
2022/12/25 15:03:36;;;;;;;1.23;1.17;;;;;;;14.54;54.43;100583.69;4229216;33;32810;-87
2022/12/25 15:06:06;;;;;;;1.83;1.73;;;;;;;14.39;54.70;100594.16;4246751;33;34351;-87
2022/12/25 15:08:34;;;;;;;2.08;1.98;;;;;;;14.42;54.50;100588.69;4233478;33;32919;-87
2022/12/25 15:11:01;;;;;;;4.93;1.95;;;;;;;14.31;54.78;100589.19;4245805;33;34805;-87
2022/12/25 15:13:31;;;;;;;1.62;1.52;;;;;;;14.16;55.28;100597.88;4238726;33;32930;-87
2022/12/25 15:16:05;;;;;;;0.40;0.40;;;;;;;14.05;55.64;100596.59;4247103;33;34548;-88
2022/12/25 15:18:37;;;;;;;1.20;1.10;;;;;;;13.94;55.91;100598.84;4262946;33;33563;-86
2022/12/25 15:21:05;;;;;;;4.68;4.22;;;;;;;13.95;55.77;100592.59;4250994;33;33921;-86
2022/12/25 15:23:33;;;;;;;11.50;3.92;;;;;;;13.65;56.74;100586.88;4251511;33;32969;-87
2022/12/25 15:26:05;;;;;;;1.83;1.73;;;;;;;13.63;56.70;100582.56;4252567;33;30719;-86
2022/12/25 15:28:33;;;;;;;6.07;2.62;;;;;;;13.60;56.72;100588.00;4240667;33;32531;-86
2022/12/25 15:31:00;;;;;;;7.78;1.58;;;;;;;13.52;56.70;100586.53;4255418;33;33855;-86
2022/12/25 15:33:28;;;;;;;5.15;1.42;;;;;;;13.53;56.78;100582.97;4251797;33;33447;-85
2022/12/25 15:35:56;;;;;;;7.43;2.83;;;;;;;13.56;56.51;100588.12;4251637;33;33993;-86
2022/12/25 15:38:23;;;;;;;0.65;0.65;;;;;;;13.41;57.15;100588.78;4253625;33;32901;-86
2022/12/25 15:40:51;;;;;;;1.37;1.27;;;;;;;13.36;57.28;100593.44;4266516;33;34220;-85
2022/12/25 15:43:19;;;;;;;1.70;1.15;;;;;;;13.28;57.73;100600.84;4258546;33;33898;-86
2022/12/25 15:46:07;;;;;;;1.33;1.27;;;;;;;13.36;57.47;100608.50;4261962;33;33328;-86
2022/12/25 15:48:35;;;;;;;3.00;2.03;;;;;;;13.32;57.50;100602.44;4257666;33;33334;-86
2022/12/25 15:51:03;;;;;;;4.05;2.15;;;;;;;13.21;57.99;100604.66;4257860;33;33862;-86
2022/12/25 15:53:31;;;;;;;1.12;1.12;;;;;;;13.08;58.62;100605.16;4246201;33;33404;-86
2022/12/25 15:55:58;;;;;;;2.15;1.98;;;;;;;13.19;58.40;100595.88;4259407;33;34699;-87
2022/12/25 15:58:26;;;;;;;2.35;2.08;;;;;;;13.17;58.56;100600.41;4261934;33;32183;-87
2022/12/25 16:00:54;;;;;;;1.92;1.80;;;;;;;13.20;58.52;100600.28;4259497;33;34285;-87
2022/12/25 16:03:21;;;;;;;2.92;2.12;;;;;;;12.97;59.47;100595.94;4264762;33;32921;-87
2022/12/25 16:05:49;;;;;;;3.90;2.35;;;;;;;12.99;59.56;100592.28;4255049;33;32800;-87
2022/12/25 16:08:17;;;;;;;1.77;1.58;;;;;;;13.04;59.64;100594.75;4264760;33;32403;-87
2022/12/25 16:10:45;;;;;;;1.45;1.33;;;;;;;12.46;61.54;100599.72;4249323;33;32850;-87
2022/12/25 16:16:21;;;;;;;1.30;1.25;;;;;;;12.91;60.34;100590.84;4260114;33;33756;-87
2022/12/25 16:18:49;;;;;;;2.08;1.87;;;;;;;13.03;59.91;100598.31;4258371;33;31982;-87
2022/12/25 16:21:18;;;;;;;1.95;1.77;;;;;;;12.93;60.45;100591.69;4261963;33;33986;-87
2022/12/25 16:23:46;;;;;;;0.90;0.90;;;;;;;12.97;59.88;100583.53;4261004;33;33720;-87
2022/12/25 16:26:14;;;;;;;4.40;3.40;;;;;;;12.96;59.66;100581.81;4258047;33;32791;-88
2022/12/25 16:28:42;;;;;;;4.47;2.55;;;;;;;12.86;59.79;100592.84;4247809;33;32780;-87
2022/12/25 16:31:10;;;;;;;5.07;2.47;;;;;;;13.11;58.93;100584.75;4254819;33;32629;-87
2022/12/25 16:33:38;;;;;;;23.75;1.87;;;;;;;13.06;58.93;100583.16;4256264;33;34237;-87
2022/12/25 16:36:06;;;;;;;5.28;3.12;;;;;;;13.00;58.89;100583.38;4267332;33;33852;-87
2022/12/25 16:38:34;;;;;;;5.20;2.50;;;;;;;12.90;59.36;100582.03;4253588;33;32973;-87
2022/12/25 16:41:01;;;;;;;2.60;1.83;;;;;;;13.00;58.95;100578.09;4259046;33;33610;-87
2022/12/25 16:43:29;;;;;;;1.65;1.48;;;;;;;13.11;58.60;100580.31;4259521;33;33793;-87
2022/12/25 16:45:57;;;;;;;1.77;1.48;;;;;;;13.24;58.28;100585.97;4262443;33;33981;-87
2022/12/25 16:48:24;;;;;;;12.35;2.25;;;;;;;13.18;58.32;100581.75;4265157;33;33385;-87
2022/12/25 16:50:52;;;;;;;8.82;3.70;;;;;;;13.50;57.43;100574.28;4258547;33;32947;-87
2022/12/25 16:53:19;;;;;;;2.83;2.53;;;;;;;13.22;58.17;100582.53;4240969;33;34250;-87
2022/12/25 16:55:47;;;;;;;2.45;2.25;;;;;;;13.28;57.94;100579.63;4257213;33;32942;-87
2022/12/25 16:58:15;;;;;;;1.92;1.83;;;;;;;13.34;57.69;100574.06;4254068;33;32371;-87
2022/12/25 17:00:42;;;;;;;12.13;3.55;;;;;;;13.40;57.47;100565.84;4257351;33;33356;-87
2022/12/25 17:03:15;;;;;;;2.78;1.48;;;;;;;13.26;58.04;100568.22;4252276;33;33320;-87
2022/12/25 17:05:43;;;;;;;2.42;2.28;;;;;;;13.27;58.08;100564.66;4255022;33;33793;-87
2022/12/25 17:08:11;;;;;;;5.37;2.60;;;;;;;13.43;57.60;100565.69;4248919;33;32617;-89
2022/12/25 17:10:38;;;;;;;1.10;1.10;;;;;;;13.27;58.17;100564.66;4255685;33;34239;-89
2022/12/25 17:13:06;;;;;;;1.75;1.60;;;;;;;13.47;57.51;100561.12;4242776;33;32520;-89
2022/12/25 17:15:34;;;;;;;1.17;1.17;;;;;;;13.38;57.69;100561.53;4242784;33;33064;-89
2022/12/25 17:18:01;;;;;;;3.12;1.15;;;;;;;13.38;57.81;100569.47;4253570;33;32262;-88
2022/12/25 17:20:29;;;;;;;1.52;0.90;;;;;;;13.33;57.82;100572.31;4244006;33;33928;-88
2022/12/25 17:22:57;;;;;;;1.35;1.35;;;;;;;13.49;57.40;100565.44;4254743;33;34265;-89
2022/12/25 17:25:27;;;;;;;4.18;2.20;;;;;;;13.36;57.81;100563.41;4242347;33;33431;-89
2022/12/25 17:27:55;;;;;;;2.53;2.12;;;;;;;13.29;57.92;100568.97;4253257;33;32988;-89
2022/12/25 17:30:27;;;;;;;4.07;3.35;;;;;;;13.28;57.99;100569.00;4247316;33;32726;-89
2022/12/25 17:32:56;;;;;;;1.95;1.83;;;;;;;13.39;57.70;100573.84;4252836;33;33947;-89
2022/12/25 17:35:23;;;;;;;3.12;2.22;;;;;;;13.24;58.04;100570.06;4251235;33;33775;-88
2022/12/25 17:37:51;;;;;;;1.05;0.95;;;;;;;13.16;58.18;100551.81;4250640;33;32346;-89
2022/12/25 17:40:19;;;;;;;0.90;0.90;;;;;;;13.22;58.15;100545.41;4253039;33;32362;-89
2022/12/25 17:42:47;;;;;;;4.68;1.30;;;;;;;13.19;58.04;100541.06;4241198;33;34352;-88
2022/12/25 17:45:14;;;;;;;1.52;1.42;;;;;;;13.21;58.10;100543.66;4251195;33;33692;-88
2022/12/25 17:47:42;;;;;;;3.62;2.45;;;;;;;13.15;58.15;100541.25;4248935;33;31156;-88
2022/12/25 17:50:10;;;;;;;1.95;1.60;;;;;;;13.14;58.31;100550.13;4241764;33;31850;-88
2022/12/25 17:52:38;;;;;;;1.12;1.02;;;;;;;13.00;58.69;100556.88;4249906;33;34562;-88
2022/12/25 17:55:06;;;;;;;2.28;2.10;;;;;;;12.95;58.78;100553.56;4248034;33;32385;-88
2022/12/25 17:57:33;;;;;;;9.10;4.20;;;;;;;12.99;58.82;100552.50;4246001;33;32779;-89
2022/12/25 18:00:01;;;;;;;2.53;2.33;;;;;;;13.03;58.64;100548.81;4236783;33;33685;-87
2022/12/25 18:02:30;;;;;;;9.25;3.22;;;;;;;12.87;59.02;100549.53;4249481;33;32285;-87
2022/12/25 18:04:59;;;;;;;1.35;1.30;;;;;;;13.00;58.59;100551.56;4227360;33;33570;-87
2022/12/25 18:07:26;;;;;;;0.85;0.85;;;;;;;12.96;58.88;100547.34;4235473;33;32143;-87
2022/12/25 18:09:54;;;;;;;1.42;1.33;;;;;;;13.02;58.57;100544.44;4245491;33;33664;-88
2022/12/25 18:12:22;;;;;;;2.03;1.85;;;;;;;13.10;58.42;100545.87;4247274;33;32096;-87
2022/12/25 18:14:49;;;;;;;4.37;3.53;;;;;;;12.96;58.74;100547.34;4239793;33;33357;-87
2022/12/25 18:17:17;;;;;;;7.37;4.57;;;;;;;12.88;59.09;100545.94;4242791;33;34129;-88
2022/12/25 18:19:45;;;;;;;4.87;2.58;;;;;;;13.04;58.52;100536.41;4251920;33;32561;-88
2022/12/25 18:22:13;;;;;;;1.33;1.25;;;;;;;12.87;58.81;100546.88;4224515;33;32677;-88
2022/12/25 18:24:41;;;;;;;3.22;2.72;;;;;;;12.71;59.28;100544.81;4252113;33;34255;-87
2022/12/25 18:27:09;;;;;;;2.65;2.08;;;;;;;12.75;59.44;100538.47;4240803;33;35406;-88
2022/12/25 18:29:36;;;;;;;7.20;1.92;;;;;;;12.79;59.26;100525.97;4233631;33;33681;-87
2022/12/25 18:32:04;;;;;;;2.37;0.85;;;;;;;12.84;59.06;100529.28;4241338;33;34508;-88
2022/12/25 18:34:33;;;;;;;1.08;1.08;;;;;;;12.91;58.76;100536.06;4241529;33;32810;-88
2022/12/25 18:37:03;;;;;;;2.55;2.35;;;;;;;12.81;59.29;100538.22;4245936;33;31977;-87
2022/12/25 18:39:32;;;;;;;2.78;2.58;;;;;;;12.75;59.38;100540.28;4258817;33;33929;-88
2022/12/25 18:44:46;;;;;;;1.27;1.12;;;;;;;12.75;59.31;100535.84;4257461;33;32749;-88
2022/12/25 18:47:20;;;;;;;0.55;0.55;;;;;;;12.82;59.08;100531.16;4246004;33;33377;-87
2022/12/25 18:49:48;;;;;;;3.62;2.10;;;;;;;12.88;58.91;100530.91;4243982;33;32947;-88
2022/12/25 18:52:16;;;;;;;0.57;0.57;;;;;;;12.84;58.99;100525.78;4244475;33;34029;-87
2022/12/25 18:55:04;;;;;;;2.45;2.25;;;;;;;12.85;59.01;100524.84;4246965;33;31884;-87
2022/12/25 18:57:33;;;;;;;1.77;1.67;;;;;;;12.72;59.40;100516.53;4248706;33;31380;-88
2022/12/25 19:00:01;;;;;;;1.12;1.02;;;;;;;12.57;60.00;100526.84;4245445;33;34195;-87
2022/12/25 19:02:29;;;;;;;1.87;1.48;;;;;;;12.71;59.70;100525.41;4241770;33;33980;-87
2022/12/25 19:04:58;;;;;;;0.77;0.77;;;;;;;12.41;60.97;100520.44;4244482;33;34538;-88
2022/12/25 19:07:26;;;;;;;1.55;0.57;;;;;;;12.69;60.24;100520.19;4243887;33;32891;-88
2022/12/25 19:09:53;;;;;;;0.93;0.93;;;;;;;12.84;59.87;100509.88;4233601;33;32883;-87
2022/12/25 19:12:22;;;;;;;3.45;1.02;;;;;;;12.77;60.41;100510.16;4243385;33;33423;-87
2022/12/25 19:14:50;;;;;;;6.25;3.05;;;;;;;12.69;60.64;100511.37;4252942;33;34020;-87
2022/12/25 19:17:21;;;;;;;1.58;1.48;;;;;;;12.70;60.72;100513.09;4246635;33;32981;-86
2022/12/25 19:19:58;;;;;;;16.00;1.55;;;;;;;12.67;61.01;100507.91;4236353;33;33198;-86
2022/12/25 19:22:25;;;;;;;1.50;1.40;;;;;;;12.84;60.44;100518.69;4243482;33;33371;-87
2022/12/25 19:24:53;;;;;;;1.75;1.25;;;;;;;12.98;60.09;100511.03;4243375;33;34062;-88
2022/12/25 19:27:21;;;;;;;2.03;1.92;;;;;;;12.74;60.87;100520.88;4237860;33;33044;-89
2022/12/25 19:29:49;;;;;;;0.85;0.85;;;;;;;12.83;60.71;100522.28;4245427;33;33156;-89
2022/12/25 19:32:16;;;;;;;2.17;1.02;;;;;;;12.98;nan;100513.69;4247794;33;31002;-89
2022/12/25 19:34:44;;;;;;;3.03;1.87;;;;;;;12.76;60.93;100521.66;4245324;33;34505;-88
2022/12/25 19:37:13;;;;;;;1.75;1.65;;;;;;;12.99;59.89;100527.78;4247905;33;32776;-89
2022/12/25 19:39:45;;;;;;;1.40;0.90;;;;;;;12.96;60.09;100531.44;4249606;33;33439;-87
2022/12/25 19:42:14;;;;;;;3.53;2.08;;;;;;;13.05;59.81;100525.75;4246882;33;34103;-87
2022/12/25 19:44:42;;;;;;;0.43;0.43;;;;;;;12.77;60.55;100528.69;4259206;33;34042;-86
2022/12/25 19:47:10;;;;;;;1.33;1.23;;;;;;;12.93;59.85;100512.16;4231746;33;32735;-86
2022/12/25 19:49:38;;;;;;;1.10;1.08;;;;;;;12.85;60.21;100512.47;4244623;33;31128;-86
2022/12/25 19:52:07;;;;;;;0.35;0.35;;;;;;;12.99;59.80;100512.75;4244638;33;33946;-87
2022/12/25 19:54:35;;;;;;;0.70;0.70;;;;;;;12.54;61.39;100511.09;4246726;33;34515;-86
2022/12/25 19:57:05;;;;;;;19.62;1.40;;;;;;;12.73;60.93;100511.19;4219775;33;35125;-86
2022/12/25 19:59:35;;;;;;;;;;;;;;;12.85;60.31;100499.22;4255408;33;33605;-86
2022/12/25 20:02:03;;;;;;;1.23;1.12;;;;;;;12.74;60.82;100507.63;4246741;33;34632;-86
2022/12/25 20:04:31;;;;;;;1.25;0.50;;;;;;;12.75;60.77;100492.56;4233879;33;33808;-86
2022/12/25 20:06:58;;;;;;;0.20;0.20;;;;;;;12.86;60.24;100482.38;4243957;33;31726;-86
2022/12/25 20:09:29;;;;;;;0.77;0.77;;;;;;;12.76;60.51;100467.78;4244928;33;33214;-86
2022/12/25 20:11:59;;;;;;;1.12;1.12;;;;;;;12.64;61.18;100470.97;4247469;33;33993;-87
2022/12/25 20:14:27;;;;;;;0.85;0.85;;;;;;;12.69;60.99;100472.50;4243755;33;33984;-86
2022/12/25 20:16:59;;;;;;;1.42;1.33;;;;;;;12.69;60.96;100471.63;4243724;33;32413;-86
2022/12/25 20:19:28;;;;;;;2.00;1.60;;;;;;;12.86;60.43;100479.72;4257290;33;33978;-85
2022/12/25 20:21:59;;;;;;;0.50;0.50;;;;;;;12.62;61.06;100486.91;4246939;33;32340;-86
2022/12/25 20:24:27;;;;;;;2.30;2.10;;;;;;;12.72;60.93;100488.28;4246640;33;33424;-86
2022/12/25 20:26:55;;;;;;;4.05;1.30;;;;;;;12.67;61.09;100481.41;4238869;33;32434;-86
2022/12/25 20:29:26;;;;;;;1.67;1.57;;;;;;;12.62;61.26;100486.06;4259202;33;33046;-87
2022/12/25 20:31:53;;;;;;;1.00;0.98;;;;;;;12.54;61.45;100474.00;4261634;33;32693;-86
2022/12/25 20:34:21;;;;;;;1.85;1.15;;;;;;;12.73;60.80;100470.59;4250368;33;32573;-87
2022/12/25 20:36:52;;;;;;;0.70;0.70;;;;;;;12.52;61.60;100473.19;4260146;33;33138;-86
2022/12/25 20:39:20;;;;;;;2.05;1.35;;;;;;;12.36;62.29;100463.28;4247231;33;33486;-87
2022/12/25 20:41:47;;;;;;;4.28;1.37;;;;;;;12.58;61.53;100464.16;4247989;33;33946;-87
2022/12/25 20:44:15;;;;;;;1.35;1.27;;;;;;;12.51;61.62;100463.53;4250376;33;32150;-87
2022/12/25 20:46:43;;;;;;;0.82;0.45;;;;;;;12.39;61.96;100465.78;4250120;33;33146;-87
2022/12/25 20:49:11;;;;;;;3.83;2.33;;;;;;;12.59;61.38;100457.06;4245470;33;32508;-87
2022/12/25 20:51:39;;;;;;;1.37;1.27;;;;;;;12.48;61.48;100458.34;4247381;33;34532;-87
2022/12/25 20:54:08;;;;;;;1.75;1.65;;;;;;;12.72;60.71;100452.94;4247873;33;33639;-86
2022/12/25 20:56:36;;;;;;;1.17;0.68;;;;;;;12.87;60.14;100456.75;4263609;33;30887;-87
2022/12/25 20:59:04;;;;;;;10.75;2.97;;;;;;;12.52;61.46;100469.69;4243083;33;33338;-87
2022/12/25 21:01:32;;;;;;;2.45;2.28;;;;;;;12.48;61.50;100466.28;4250400;33;34253;-87
2022/12/25 21:04:00;;;;;;;2.08;1.98;;;;;;;12.55;61.42;100472.22;4241334;33;33955;-87
2022/12/25 21:06:28;;;;;;;1.70;1.37;;;;;;;12.59;61.13;100465.00;4237559;33;34079;-87
2022/12/25 21:08:55;;;;;;;5.82;3.42;;;;;;;12.65;61.06;100467.37;4261744;33;33718;-88
2022/12/25 21:11:23;;;;;;;5.12;1.95;;;;;;;12.67;60.72;100465.53;4253389;33;32661;-88
2022/12/25 21:13:51;;;;;;;2.92;2.72;;;;;;;12.56;60.99;100450.09;4248478;33;33808;-87
2022/12/25 21:16:20;;;;;;;1.27;1.15;;;;;;;12.74;60.67;100444.03;4237278;33;32545;-88
2022/12/25 21:18:51;;;;;;;1.08;0.98;;;;;;;12.48;61.45;100447.75;4262239;33;35135;-87
2022/12/25 21:21:20;;;;;;;1.87;1.70;;;;;;;12.57;61.12;100455.31;4258727;33;33689;-88
2022/12/25 21:23:48;;;;;;;0.43;0.43;;;;;;;12.56;61.07;100461.53;4238392;33;33384;-88
2022/12/25 21:26:19;;;;;;;0.62;0.62;;;;;;;12.46;61.51;100454.91;4250195;33;33461;-87
2022/12/25 21:28:48;;;;;;;0.28;0.28;;;;;;;12.68;60.66;100448.72;4249436;33;32821;-88
2022/12/25 21:31:16;;;;;;;2.22;1.10;;;;;;;12.57;61.29;100449.16;4238617;33;32679;-88
2022/12/25 21:33:50;;;;;;;1.67;1.58;;;;;;;12.61;61.02;100457.84;4254179;33;33824;-87